Time;durP1;ratioP1;P1;durP2;ratioP2;P2;SDS_P1;SDS_P2;PMS_P1;PMS_P2;Temp;Humidity;BMP_temperature;BMP_pressure;BME280_temperature;BME280_humidity;BME280_pressure;Samples;Min_cycle;Max_cycle;Signal;HPM_P1;HPM_P2
2021/03/30 00:02:06;;;;;;;1.73;0.82;;;;;;;6.80;71.84;101656.75;4908308;29;20055;-79
2021/03/30 00:04:32;;;;;;;1.15;1.10;;;;;;;6.85;72.45;101660.69;4911649;29;20041;-78
2021/03/30 00:06:57;;;;;;;1.27;0.75;;;;;;;6.78;72.11;101658.84;4909756;29;20028;-78
2021/03/30 00:09:23;;;;;;;0.57;0.57;;;;;;;6.78;71.61;101664.28;4914648;29;20039;-79
2021/03/30 00:11:49;;;;;;;0.80;0.50;;;;;;;6.70;71.61;101648.19;4903549;29;20036;-78
2021/03/30 00:14:14;;;;;;;0.80;0.80;;;;;;;6.69;71.80;101657.38;4903049;29;20447;-79
2021/03/30 00:16:40;;;;;;;1.45;1.35;;;;;;;6.62;72.02;101651.13;4894467;29;22401;-78
2021/03/30 00:19:08;;;;;;;0.82;0.82;;;;;;;6.73;72.26;101676.81;4908196;29;20032;-78
2021/03/30 00:21:34;;;;;;;1.02;0.93;;;;;;;6.55;71.59;101653.00;4915405;29;20033;-78
2021/03/30 00:23:59;;;;;;;0.70;0.70;;;;;;;6.57;71.87;101657.19;4899341;29;20039;-79
2021/03/30 00:26:25;;;;;;;0.93;0.93;;;;;;;6.66;71.40;101675.97;4913507;29;20055;-76
2021/03/30 00:28:51;;;;;;;0.90;0.73;;;;;;;6.63;71.43;101682.69;4904700;29;20040;-78
2021/03/30 00:31:16;;;;;;;0.50;0.50;;;;;;;6.50;71.70;101660.91;4903674;29;20090;-79
2021/03/30 00:33:41;;;;;;;0.50;0.50;;;;;;;6.51;71.20;101662.59;4940579;29;20031;-79
2021/03/30 00:36:07;;;;;;;1.10;1.10;;;;;;;6.54;71.12;101673.91;4924877;29;20036;-79
2021/03/30 00:38:32;;;;;;;0.70;0.70;;;;;;;6.42;70.93;101653.81;4916592;29;20024;-79
2021/03/30 00:40:59;;;;;;;0.77;0.77;;;;;;;6.53;71.48;101671.41;4910164;29;20036;-77
2021/03/30 00:43:24;;;;;;;0.73;0.73;;;;;;;6.45;71.18;101662.41;4903539;29;20044;-77
2021/03/30 00:45:51;;;;;;;0.73;0.73;;;;;;;6.44;71.20;101663.44;4911127;29;20032;-78
2021/03/30 00:48:35;;;;;;;;;;;;;;;;;;;;;
2021/03/30 00:51:12;;;;;;;0.50;0.50;;;;;;;6.35;71.42;101639.38;4921951;29;20028;-79
2021/03/30 00:53:48;;;;;;;;;;;;;;;;;;;;;
2021/03/30 00:56:23;;;;;;;;;;;;;;;;;;;;;
2021/03/30 00:58:53;;;;;;;1.13;0.60;;;;;;;6.40;71.22;101651.31;4927564;29;20120;-79
2021/03/30 01:01:19;;;;;;;0.60;0.60;;;;;;;6.47;71.53;101668.47;4912343;29;20080;-76
2021/03/30 01:03:44;;;;;;;0.50;0.50;;;;;;;6.40;70.98;101659.47;4908039;29;20052;-79
2021/03/30 01:06:10;;;;;;;0.90;0.90;;;;;;;6.38;70.94;101647.97;4916587;29;20028;-78
2021/03/30 01:08:57;;;;;;;1.20;1.10;;;;;;;6.42;71.27;101657.38;4917512;29;20052;-79
2021/03/30 01:11:54;;;;;;;0.45;0.45;;;;;;;6.34;71.38;101656.72;4919022;29;20083;-79
2021/03/30 01:14:29;;;;;;;0.30;0.25;;;;;;;6.35;71.41;101653.84;4917305;29;20095;-79
2021/03/30 01:17:10;;;;;;;0.60;0.60;;;;;;;6.26;71.10;101633.31;4915206;29;20440;-79
2021/03/30 01:19:59;;;;;;;1.05;0.90;;;;;;;6.23;71.42;101639.19;4910769;29;20574;-78
2021/03/30 01:22:49;;;;;;;0.45;0.45;;;;;;;6.20;71.23;101637.69;4928260;29;20479;-80
2021/03/30 01:25:16;;;;;;;0.70;0.70;;;;;;;6.18;71.02;101636.25;4923661;29;20028;-80
2021/03/30 01:27:50;;;;;;;0.52;0.52;;;;;;;6.22;70.83;101648.38;4906086;29;20024;-78
2021/03/30 01:30:20;;;;;;;0.50;0.50;;;;;;;6.10;71.08;101629.13;4924303;29;20103;-79
2021/03/30 01:32:56;;;;;;;0.52;0.52;;;;;;;6.11;70.93;101641.66;4927492;29;20430;-78
2021/03/30 01:35:25;;;;;;;0.60;0.57;;;;;;;6.00;70.67;101643.13;4919182;29;20079;-78
2021/03/30 01:37:51;;;;;;;0.60;0.60;;;;;;;6.02;71.24;101649.19;4923318;29;20051;-78
2021/03/30 01:40:30;;;;;;;0.35;0.35;;;;;;;5.88;71.31;101633.84;4905111;29;20028;-78
2021/03/30 01:43:00;;;;;;;0.30;0.30;;;;;;;5.83;70.95;101628.22;4926285;29;20039;-80
2021/03/30 01:45:34;;;;;;;0.60;0.60;;;;;;;5.83;70.56;101639.09;4913584;29;20028;-80
2021/03/30 01:48:03;;;;;;;0.70;0.50;;;;;;;5.83;71.03;101639.09;4922155;29;20051;-78
2021/03/30 01:50:34;;;;;;;0.30;0.30;;;;;;;5.72;71.51;101633.22;4899062;29;20428;-77
2021/03/30 01:53:00;;;;;;;0.30;0.30;;;;;;;5.79;71.03;101632.38;4900016;29;20055;-77
2021/03/30 01:55:27;;;;;;;0.47;0.45;;;;;;;5.76;71.25;101631.72;4919939;29;20059;-77
2021/03/30 01:58:02;;;;;;;0.40;0.40;;;;;;;5.79;71.24;101629.66;4915196;29;20561;-78
2021/03/30 02:00:33;;;;;;;0.35;0.35;;;;;;;5.73;71.33;101618.56;4921443;29;20028;-77
2021/03/30 02:03:00;;;;;;;0.40;0.40;;;;;;;5.79;71.42;101621.53;4914864;29;20047;-79
2021/03/30 02:05:26;;;;;;;0.52;0.52;;;;;;;5.69;71.66;101611.88;4923239;29;20027;-78
2021/03/30 02:07:58;;;;;;;0.30;0.30;;;;;;;5.81;71.27;101624.88;4916125;29;20064;-78
2021/03/30 02:10:43;;;;;;;1.85;0.95;;;;;;;5.76;71.76;101622.75;4919437;29;20035;-80
2021/03/30 02:13:19;;;;;;;0.52;0.45;;;;;;;5.63;71.30;101607.28;4913159;29;20029;-78
2021/03/30 02:15:47;;;;;;;0.43;0.43;;;;;;;5.67;71.20;101611.25;4902372;29;20035;-77
2021/03/30 02:18:20;;;;;;;0.93;0.80;;;;;;;5.59;71.75;101600.56;4908191;29;20446;-80
2021/03/30 02:20:55;;;;;;;0.40;0.40;;;;;;;5.61;70.91;101603.94;4908687;29;20080;-79
2021/03/30 02:23:25;;;;;;;0.75;0.75;;;;;;;5.73;71.63;101624.00;4907252;29;20115;-78
2021/03/30 02:26:02;;;;;;;0.57;0.57;;;;;;;5.71;71.64;101625.25;4913671;29;20047;-77
2021/03/30 02:28:51;;;;;;;1.48;1.38;;;;;;;5.66;71.80;101606.88;4903241;29;20020;-79
2021/03/30 02:31:25;;;;;;;0.93;0.93;;;;;;;5.73;71.59;101613.16;4918675;29;20106;-79
2021/03/30 02:33:59;;;;;;;4.95;1.83;;;;;;;5.63;72.01;101596.41;4906232;29;20024;-77
2021/03/30 02:36:38;;;;;;;;;;;;;;;;;;;;;
2021/03/30 02:39:12;;;;;;;1.90;1.00;;;;;;;5.70;71.41;101594.56;4909751;29;20028;-78
2021/03/30 02:41:39;;;;;;;1.05;1.00;;;;;;;5.69;71.97;101594.75;4906063;29;20106;-78
2021/03/30 02:44:19;;;;;;;0.60;0.60;;;;;;;5.70;71.49;101594.56;4921144;29;20032;-79
2021/03/30 02:46:47;;;;;;;0.95;0.95;;;;;;;5.72;71.53;101583.50;4919367;29;20048;-78
2021/03/30 02:49:22;;;;;;;0.80;0.80;;;;;;;5.77;72.02;101587.28;4928346;29;20035;-78
2021/03/30 02:52:11;;;;;;;0.82;0.82;;;;;;;5.85;72.04;101588.94;4905175;29;20038;-78
2021/03/30 02:54:45;;;;;;;0.93;0.93;;;;;;;5.92;71.28;101594.41;4913410;29;20043;-78
2021/03/30 02:57:39;;;;;;;0.93;0.93;;;;;;;5.97;71.89;101602.78;4907194;29;20075;-79
2021/03/30 03:00:05;;;;;;;0.60;0.60;;;;;;;6.03;71.65;101615.56;4900586;29;20043;-76
2021/03/30 03:02:31;;;;;;;0.50;0.50;;;;;;;5.95;72.12;101594.81;4912264;29;20083;-78
2021/03/30 03:04:57;;;;;;;0.70;0.70;;;;;;;5.99;72.18;101600.72;4900925;29;20111;-78
2021/03/30 03:07:22;;;;;;;0.75;0.75;;;;;;;5.90;71.61;101596.50;4901566;29;20024;-77
2021/03/30 03:09:52;;;;;;;0.40;0.40;;;;;;;5.98;72.30;101615.31;4915523;29;20051;-79
2021/03/30 03:12:21;;;;;;;0.95;0.95;;;;;;;5.89;72.25;101594.81;4905492;29;20119;-78
2021/03/30 03:14:54;;;;;;;0.65;0.65;;;;;;;5.88;72.15;101593.13;4909929;29;20058;-79
2021/03/30 03:17:29;;;;;;;0.55;0.55;;;;;;;5.93;71.92;101599.63;4919623;29;20104;-77
2021/03/30 03:19:56;;;;;;;0.68;0.68;;;;;;;5.86;71.79;101596.06;4912205;29;20032;-78
2021/03/30 03:22:22;;;;;;;0.70;0.70;;;;;;;5.90;71.66;101607.38;4913450;29;20032;-78
2021/03/30 03:24:49;;;;;;;0.65;0.65;;;;;;;5.85;72.23;101605.25;4914834;29;20088;-76
2021/03/30 03:27:22;;;;;;;1.02;1.02;;;;;;;5.79;72.04;101586.25;4921183;29;20032;-79
2021/03/30 03:30:15;;;;;;;1.00;1.00;;;;;;;5.69;71.86;101573.88;4903128;29;20098;-79
2021/03/30 03:32:43;;;;;;;1.15;1.13;;;;;;;5.66;71.56;101568.88;4919303;29;20570;-78
2021/03/30 03:35:20;;;;;;;0.90;0.90;;;;;;;5.72;72.16;101578.06;4915828;29;20539;-77
2021/03/30 03:37:56;;;;;;;1.40;1.30;;;;;;;5.61;71.98;101571.38;4916660;29;20036;-78
2021/03/30 03:40:22;;;;;;;1.20;1.20;;;;;;;5.63;71.94;101591.00;4916862;29;20479;-77
2021/03/30 03:42:57;;;;;;;0.65;0.65;;;;;;;5.47;71.94;101578.63;4909332;29;20124;-77
2021/03/30 03:45:23;;;;;;;1.70;1.60;;;;;;;5.39;71.96;101573.41;4924510;29;20032;-77
2021/03/30 03:47:50;;;;;;;1.73;1.63;;;;;;;5.36;72.35;101577.34;4908578;29;20044;-76
2021/03/30 03:50:16;;;;;;;1.40;1.30;;;;;;;5.42;72.31;101591.97;4933942;29;20039;-78
2021/03/30 03:52:50;;;;;;;1.25;1.25;;;;;;;5.31;72.38;101593.38;4933084;29;20047;-77
2021/03/30 03:55:16;;;;;;;4.15;3.95;;;;;;;5.21;72.63;101587.50;4929055;29;20052;-78
2021/03/30 03:58:14;;;;;;;2.47;2.38;;;;;;;5.17;72.58;101597.06;4901267;29;20039;-77
2021/03/30 04:00:41;;;;;;;1.30;1.30;;;;;;;5.03;72.44;101586.16;4913961;29;20048;-78
2021/03/30 04:03:19;;;;;;;3.55;3.35;;;;;;;4.96;72.25;101590.72;4915705;29;20071;-78
2021/03/30 04:06:11;;;;;;;4.40;4.13;;;;;;;4.70;72.77;101570.56;4930204;29;20039;-78
2021/03/30 04:08:44;;;;;;;2.95;2.85;;;;;;;4.66;72.51;101580.13;4925381;29;20032;-80
2021/03/30 04:11:11;;;;;;;2.72;2.63;;;;;;;4.48;73.09;101569.81;4916424;29;20111;-79
2021/03/30 04:13:38;;;;;;;2.85;2.75;;;;;;;4.45;72.47;101572.88;4914177;29;20036;-77
2021/03/30 04:16:05;;;;;;;2.67;2.58;;;;;;;4.29;73.50;101557.78;4897214;29;20651;-76
2021/03/30 04:18:38;;;;;;;1.40;1.38;;;;;;;4.30;72.54;101559.44;4918242;29;20028;-77
2021/03/30 04:21:04;;;;;;;0.80;0.80;;;;;;;4.20;72.54;101542.69;4900448;29;20351;-75
2021/03/30 04:23:30;;;;;;;0.73;0.73;;;;;;;4.20;72.57;101542.69;4921506;29;20031;-77
2021/03/30 04:25:56;;;;;;;1.55;1.45;;;;;;;4.28;72.93;101558.81;4902734;29;20541;-75
2021/03/30 04:28:25;;;;;;;0.73;0.73;;;;;;;4.28;73.10;101556.09;4905007;29;20025;-76
2021/03/30 04:30:50;;;;;;;0.75;0.75;;;;;;;4.25;72.71;101555.63;4906670;29;20522;-77
2021/03/30 04:33:19;;;;;;;0.40;0.40;;;;;;;4.31;73.25;101561.13;4911183;29;20043;-79
2021/03/30 04:35:47;;;;;;;0.85;0.85;;;;;;;4.29;73.21;101565.91;4900728;29;20051;-76
2021/03/30 04:38:32;;;;;;;0.77;0.77;;;;;;;4.23;73.42;101553.13;4910775;29;20035;-76
2021/03/30 04:40:58;;;;;;;0.40;0.40;;;;;;;4.26;73.20;101562.75;4912938;29;20593;-76
2021/03/30 04:43:24;;;;;;;1.05;0.57;;;;;;;4.18;72.08;101558.31;4909114;29;20043;-76
2021/03/30 04:45:50;;;;;;;0.43;0.43;;;;;;;4.11;72.60;101555.53;4901216;29;20020;-76
2021/03/30 04:48:18;;;;;;;0.75;0.47;;;;;;;4.17;72.98;101570.16;4912222;29;20555;-77
2021/03/30 04:50:56;;;;;;;0.65;0.65;;;;;;;4.04;72.45;101543.00;4917445;29;20092;-78
2021/03/30 04:53:24;;;;;;;1.67;0.82;;;;;;;4.01;72.75;101539.63;4909133;29;20028;-76
2021/03/30 04:55:49;;;;;;;1.05;1.05;;;;;;;4.08;73.33;101549.69;4916145;29;20019;-76
2021/03/30 04:58:15;;;;;;;1.20;1.20;;;;;;;4.13;72.97;101552.63;4909349;29;20102;-80
2021/03/30 05:00:42;;;;;;;0.52;0.52;;;;;;;4.08;72.79;101533.44;4901893;29;20087;-79
2021/03/30 05:03:11;;;;;;;0.77;0.70;;;;;;;4.09;72.48;101540.50;4917771;29;20044;-77
2021/03/30 05:05:39;;;;;;;0.70;0.65;;;;;;;4.17;72.54;101553.91;4899225;29;20470;-78
2021/03/30 05:08:07;;;;;;;0.60;0.45;;;;;;;4.10;73.17;101550.31;4911945;29;20095;-77
2021/03/30 05:10:33;;;;;;;1.05;1.00;;;;;;;4.15;72.68;101556.81;4895662;29;20115;-76
2021/03/30 05:13:28;;;;;;;1.67;1.58;;;;;;;4.19;73.12;101562.66;4897909;29;20495;-76
2021/03/30 05:16:00;;;;;;;1.23;1.23;;;;;;;4.16;73.19;101558.50;4891088;29;20035;-78
2021/03/30 05:18:49;;;;;;;;;;;;;;;;;;;;;
2021/03/30 05:21:25;;;;;;;;;;;;;;;;;;;;;
2021/03/30 05:24:02;;;;;;;3.17;2.97;;;;;;;3.89;73.27;101535.78;4913719;29;20038;-78
2021/03/30 05:26:30;;;;;;;2.03;1.92;;;;;;;3.85;72.81;101529.06;4915077;29;20039;-77
2021/03/30 05:28:56;;;;;;;1.63;1.52;;;;;;;3.89;72.85;101541.19;4910377;29;20029;-77
2021/03/30 05:31:21;;;;;;;2.45;2.28;;;;;;;3.97;73.34;101560.00;4910538;29;20031;-76
2021/03/30 05:33:46;;;;;;;1.80;1.70;;;;;;;3.92;73.46;101557.03;4885093;29;20035;-76
2021/03/30 05:36:14;;;;;;;0.95;0.95;;;;;;;3.82;73.18;101548.41;4918864;29;20020;-76
2021/03/30 05:38:40;;;;;;;1.55;1.48;;;;;;;3.84;73.74;101554.44;4919798;29;20020;-75
2021/03/30 05:41:06;;;;;;;1.55;1.50;;;;;;;3.84;73.33;101559.88;4920949;29;20035;-77
2021/03/30 05:43:33;;;;;;;2.50;2.40;;;;;;;3.76;73.09;101557.31;4923811;29;20029;-77
2021/03/30 05:46:00;;;;;;;3.20;3.00;;;;;;;3.73;73.77;101555.81;4915864;29;20172;-76
2021/03/30 05:48:26;;;;;;;2.05;1.75;;;;;;;3.77;73.47;101559.00;4888575;29;20024;-77
2021/03/30 05:50:51;;;;;;;1.70;1.60;;;;;;;3.81;73.38;101565.66;4918063;29;20416;-76
2021/03/30 05:53:19;;;;;;;1.10;1.10;;;;;;;3.85;73.22;101566.97;4913385;29;20024;-77
2021/03/30 05:55:58;;;;;;;;;;;;;;;;;;;;;
2021/03/30 05:58:27;;;;;;;1.13;1.13;;;;;;;3.94;73.51;101565.81;4916492;29;20080;-78
2021/03/30 06:00:59;;;;;;;1.27;1.23;;;;;;;3.95;73.11;101567.47;4902721;29;20079;-77
2021/03/30 06:03:27;;;;;;;1.77;1.67;;;;;;;4.02;73.24;101571.06;4903837;29;20052;-77
2021/03/30 06:05:59;;;;;;;2.28;2.17;;;;;;;4.17;73.00;101586.41;4921120;29;20080;-80
2021/03/30 06:08:29;;;;;;;0.82;0.82;;;;;;;4.11;72.72;101560.13;4911976;29;20039;-78
2021/03/30 06:11:02;;;;;;;1.38;1.27;;;;;;;4.15;72.89;101556.00;4909735;29;20483;-78
2021/03/30 06:13:47;;;;;;;2.03;1.88;;;;;;;4.38;73.32;101577.44;4906728;29;20036;-79
2021/03/30 06:16:20;;;;;;;1.80;1.70;;;;;;;4.29;72.90;101552.38;4916177;29;20061;-78
2021/03/30 06:18:45;;;;;;;1.20;1.20;;;;;;;4.40;72.65;101569.94;4908993;29;20028;-78
2021/03/30 06:21:17;;;;;;;1.75;1.65;;;;;;;4.48;73.42;101574.34;4901790;29;20035;-76
2021/03/30 06:23:42;;;;;;;1.48;1.45;;;;;;;4.60;73.01;101582.78;4895655;29;20108;-77
2021/03/30 06:26:17;;;;;;;1.20;1.20;;;;;;;4.59;72.91;101570.28;4916316;29;20436;-77
2021/03/30 06:28:43;;;;;;;1.10;1.10;;;;;;;4.72;72.32;101582.03;4890699;29;20103;-77
2021/03/30 06:31:13;;;;;;;1.48;1.38;;;;;;;4.77;72.85;101580.59;4908145;29;20116;-78
2021/03/30 06:33:52;;;;;;;1.30;1.30;;;;;;;4.95;72.71;101588.19;4900535;29;20115;-75
2021/03/30 06:36:28;;;;;;;0.93;0.93;;;;;;;5.03;72.63;101583.44;4903906;29;20107;-73
2021/03/30 06:39:05;;;;;;;1.15;1.15;;;;;;;5.14;72.54;101578.50;4915671;29;20039;-74
2021/03/30 06:44:39;;;;;;;1.30;1.30;;;;;;;5.52;72.75;101592.44;4904329;29;20024;-73
2021/03/30 06:47:08;;;;;;;1.60;1.50;;;;;;;5.68;72.30;101588.50;4909500;29;20083;-74
2021/03/30 06:49:38;;;;;;;2.17;2.08;;;;;;;5.85;72.51;101593.56;4901517;29;20035;-74
2021/03/30 06:52:15;;;;;;;1.83;1.73;;;;;;;6.02;72.37;101589.44;4904060;29;20055;-74
2021/03/30 06:54:54;;;;;;;2.05;1.90;;;;;;;6.24;72.57;101592.78;4914664;29;20028;-74
2021/03/30 06:57:43;;;;;;;2.35;2.25;;;;;;;6.48;72.16;101593.19;4903693;29;20032;-74
2021/03/30 07:00:30;;;;;;;1.67;1.58;;;;;;;6.70;72.44;101590.25;4911696;29;20024;-74
2021/03/30 07:03:04;;;;;;;1.17;1.10;;;;;;;6.92;72.11;101599.84;4892300;29;20100;-75
2021/03/30 07:05:34;;;;;;;1.77;1.02;;;;;;;7.12;71.71;101588.88;4907663;29;20032;-77
2021/03/30 07:08:14;;;;;;;2.15;2.05;;;;;;;7.40;71.42;101590.44;4914374;29;20020;-76
2021/03/30 07:10:42;;;;;;;2.40;2.30;;;;;;;7.62;71.48;101598.31;4898431;29;20496;-74
2021/03/30 07:13:09;;;;;;;2.03;1.92;;;;;;;7.78;70.84;101578.75;4909050;29;20102;-75
2021/03/30 07:15:35;;;;;;;2.70;2.58;;;;;;;8.06;71.75;101599.31;4914121;29;20537;-75
2021/03/30 07:18:14;;;;;;;3.30;3.10;;;;;;;8.30;71.19;101594.91;4919454;29;20035;-75
2021/03/30 07:21:00;;;;;;;1.60;1.50;;;;;;;8.57;70.78;101605.63;4914046;29;20050;-76
2021/03/30 07:23:28;;;;;;;1.13;1.10;;;;;;;8.74;70.74;101589.53;4915440;29;20024;-77
2021/03/30 07:26:15;;;;;;;2.67;2.53;;;;;;;9.20;70.00;101607.28;4918920;29;20092;-76
2021/03/30 07:28:52;;;;;;;2.20;2.10;;;;;;;9.40;70.33;101603.47;4910844;29;20149;-77
2021/03/30 07:31:28;;;;;;;3.00;2.80;;;;;;;9.64;69.36;101600.84;4906978;29;20103;-76
2021/03/30 07:34:00;;;;;;;2.50;2.40;;;;;;;9.87;70.28;101600.97;4917992;29;20117;-75
2021/03/30 07:36:31;;;;;;;3.88;3.58;;;;;;;10.18;68.74;101614.56;4915387;29;20497;-73
2021/03/30 07:39:01;;;;;;;2.25;2.10;;;;;;;10.36;68.71;101600.03;4916050;29;20048;-76
2021/03/30 07:41:27;;;;;;;2.80;2.55;;;;;;;10.64;68.79;101607.53;4896271;29;20039;-76
2021/03/30 07:43:58;;;;;;;2.33;2.22;;;;;;;10.83;68.68;101605.50;4916877;29;20028;-76
2021/03/30 07:46:25;;;;;;;1.95;1.58;;;;;;;11.08;67.91;101610.72;4911691;29;20059;-77
2021/03/30 07:49:01;;;;;;;;;;;;;;;;;;;;;
2021/03/30 07:51:37;;;;;;;2.30;2.20;;;;;;;11.46;67.26;101603.00;4907729;29;20096;-75
2021/03/30 07:54:07;;;;;;;;;;;;;;;11.80;66.59;101616.84;4903864;29;20144;-76
2021/03/30 07:56:38;;;;;;;2.33;2.22;;;;;;;11.84;66.66;101607.03;4901118;29;19915;-76
2021/03/30 07:59:04;;;;;;;2.05;1.95;;;;;;;11.99;66.40;101604.59;4921359;29;20087;-73
2021/03/30 08:01:34;;;;;;;2.15;2.05;;;;;;;12.33;65.89;101609.28;4906599;29;20027;-75
2021/03/30 08:04:00;;;;;;;2.20;2.10;;;;;;;12.55;65.17;101604.69;4888885;29;20206;-75
2021/03/30 08:06:28;;;;;;;2.10;2.00;;;;;;;12.74;65.02;101602.50;4908682;29;20119;-74
2021/03/30 08:09:20;;;;;;;3.15;2.60;;;;;;;13.03;64.41;101601.56;4913891;29;20024;-74
2021/03/30 08:11:48;;;;;;;2.88;2.60;;;;;;;13.25;64.04;101607.06;4910256;29;20428;-74
2021/03/30 08:14:21;;;;;;;3.60;3.28;;;;;;;13.71;63.30;101601.28;4912525;29;20551;-75
2021/03/30 08:16:52;;;;;;;3.65;3.10;;;;;;;14.22;62.66;101603.72;4910259;29;20044;-75
2021/03/30 08:19:18;;;;;;;3.53;3.00;;;;;;;14.78;61.51;101611.63;4914579;29;20387;-77
2021/03/30 08:21:59;;;;;;;7.88;3.50;;;;;;;15.48;60.80;101601.22;4904189;29;20040;-78
2021/03/30 08:24:45;;;;;;;3.40;3.20;;;;;;;16.45;59.30;101605.25;4911738;29;20020;-75
2021/03/30 08:27:37;;;;;;;3.55;2.95;;;;;;;17.03;57.39;101598.53;4900316;29;20028;-76
2021/03/30 08:30:14;;;;;;;2.90;2.70;;;;;;;17.31;55.78;101590.72;4907068;29;20029;-74
2021/03/30 08:32:48;;;;;;;1.88;1.77;;;;;;;17.74;55.69;101591.00;4913760;29;20040;-75
2021/03/30 08:35:39;;;;;;;2.15;2.05;;;;;;;18.09;53.50;101600.22;4909443;29;20080;-77
2021/03/30 08:38:05;;;;;;;2.28;2.17;;;;;;;18.29;52.92;101597.28;4909786;29;20391;-75
2021/03/30 08:40:34;;;;;;;3.42;1.80;;;;;;;18.47;51.09;101604.06;4912708;29;20383;-78
2021/03/30 08:43:00;;;;;;;2.25;2.08;;;;;;;18.62;50.82;101592.00;4908617;29;20535;-75
2021/03/30 08:45:25;;;;;;;2.60;2.03;;;;;;;18.89;49.85;101603.69;4910219;29;20123;-77
2021/03/30 08:47:51;;;;;;;1.73;1.63;;;;;;;19.13;49.12;101603.72;4895056;29;20039;-76
2021/03/30 08:50:22;;;;;;;1.98;1.88;;;;;;;19.48;49.68;101599.66;4909079;29;20063;-76
2021/03/30 08:52:52;;;;;;;3.28;1.95;;;;;;;19.88;48.23;101607.72;4912801;29;20032;-76
2021/03/30 08:55:28;;;;;;;6.88;3.13;;;;;;;20.32;47.79;101595.34;4914191;29;20042;-75
2021/03/30 08:58:01;;;;;;;2.25;1.30;;;;;;;20.92;47.79;101602.94;4900116;29;20379;-75
2021/03/30 09:00:28;;;;;;;1.55;1.50;;;;;;;21.37;45.72;101590.34;4911515;29;20537;-78
2021/03/30 09:03:07;;;;;;;1.85;1.52;;;;;;;21.77;44.72;101622.03;4912493;29;20068;-77
2021/03/30 09:05:41;;;;;;;1.75;1.20;;;;;;;22.04;44.87;101603.59;4915624;29;20027;-76
2021/03/30 09:08:10;;;;;;;1.20;1.15;;;;;;;22.20;43.83;101603.22;4894280;29;20040;-77
2021/03/30 09:10:44;;;;;;;1.48;1.38;;;;;;;22.31;43.47;101607.38;4911158;29;20035;-79
2021/03/30 09:13:16;;;;;;;1.17;1.13;;;;;;;22.51;43.31;101608.84;4904570;29;20036;-76
2021/03/30 09:16:20;;;;;;;;;;;;;;;;;;;;;
2021/03/30 09:18:46;;;;;;;1.63;1.50;;;;;;;22.23;41.74;101595.03;4906543;29;20039;-78
2021/03/30 09:21:18;;;;;;;1.48;1.45;;;;;;;21.84;41.32;101587.38;4902171;29;20127;-78
2021/03/30 09:23:45;;;;;;;0.60;0.60;;;;;;;21.82;42.37;101623.06;4912270;29;20111;-77
2021/03/30 09:26:27;;;;;;;;;;;;;;;;;;;;;
2021/03/30 09:28:53;;;;;;;1.88;0.90;;;;;;;22.40;42.31;101613.88;4912021;29;20032;-74
2021/03/30 09:31:18;;;;;;;4.63;1.40;;;;;;;22.56;41.77;101602.31;4910246;29;20024;-76
2021/03/30 09:33:46;;;;;;;3.03;0.88;;;;;;;22.93;41.47;101623.34;4908109;29;20379;-74
2021/03/30 09:36:15;;;;;;;2.13;1.15;;;;;;;23.12;40.80;101611.97;4904945;29;20518;-77
2021/03/30 09:38:55;;;;;;;1.00;1.00;;;;;;;23.43;40.80;101618.63;4877721;29;20040;-78
2021/03/30 09:41:54;;;;;;;;;;;;;;;;;;;;;
2021/03/30 09:44:27;;;;;;;1.30;1.20;;;;;;;24.02;40.09;101629.38;4913422;29;20024;-81
2021/03/30 09:46:55;;;;;;;3.13;0.60;;;;;;;24.94;40.23;101611.50;4901399;29;20042;-79
2021/03/30 09:49:41;;;;;;;1.00;0.90;;;;;;;25.83;38.18;101616.25;4912264;29;20051;-80
2021/03/30 09:52:07;;;;;;;0.77;0.77;;;;;;;25.75;37.28;101622.72;4903450;29;20039;-77
2021/03/30 09:54:39;;;;;;;0.80;0.80;;;;;;;25.34;36.59;101625.13;4911550;29;20044;-78
2021/03/30 09:57:13;;;;;;;0.80;0.80;;;;;;;25.43;37.70;101616.69;4911239;29;20092;-78
2021/03/30 09:59:38;;;;;;;0.60;0.60;;;;;;;25.80;37.01;101605.72;4917506;29;20028;-78
2021/03/30 10:02:25;;;;;;;1.55;0.90;;;;;;;26.51;36.86;101617.13;4916798;29;20367;-79
2021/03/30 10:04:54;;;;;;;4.25;0.77;;;;;;;27.93;36.93;101616.56;4915960;29;20497;-81
2021/03/30 10:07:21;;;;;;;0.45;0.45;;;;;;;29.16;35.42;101615.09;4906082;29;20103;-76
2021/03/30 10:10:12;;;;;;;1.00;1.00;;;;;;;30.57;33.20;101620.94;4931104;29;20031;-74
2021/03/30 10:12:56;;;;;;;1.23;1.13;;;;;;;30.97;31.87;101605.50;4915750;29;20028;-75
2021/03/30 10:15:39;;;;;;;0.90;0.55;;;;;;;31.11;31.28;101611.41;4928923;29;20028;-75
2021/03/30 10:18:06;;;;;;;0.55;0.55;;;;;;;31.03;31.04;101604.03;4929596;29;20029;-75
2021/03/30 10:20:43;;;;;;;1.00;0.70;;;;;;;31.26;30.44;101600.34;4927179;29;20031;-75
2021/03/30 10:23:38;;;;;;;4.55;0.93;;;;;;;31.58;29.91;101606.47;4923269;29;20084;-75
2021/03/30 10:26:16;;;;;;;0.93;0.70;;;;;;;31.78;29.40;101603.50;4898865;29;20032;-75
2021/03/30 10:28:51;;;;;;;1.15;0.50;;;;;;;31.96;29.54;101606.56;4918116;29;20033;-74
2021/03/30 10:31:35;;;;;;;1.17;0.80;;;;;;;32.23;29.21;101603.66;4908641;29;20047;-74
2021/03/30 10:34:01;;;;;;;0.82;0.82;;;;;;;32.35;27.78;101597.75;4908681;29;20147;-75
2021/03/30 10:36:27;;;;;;;0.95;0.73;;;;;;;32.46;27.56;101601.50;4909279;29;20123;-75
2021/03/30 10:39:06;;;;;;;1.30;1.15;;;;;;;32.76;27.39;101594.91;4918426;29;20051;-75
2021/03/30 10:41:34;;;;;;;1.60;1.50;;;;;;;32.82;26.78;101593.34;4910804;29;20077;-74
2021/03/30 10:43:59;;;;;;;1.15;1.08;;;;;;;33.23;26.83;101590.44;4909273;29;20035;-75
2021/03/30 10:46:35;;;;;;;;;;;;;;;;;;;;;
2021/03/30 10:49:05;;;;;;;1.02;1.02;;;;;;;34.00;25.88;101586.00;4922188;29;20020;-74
2021/03/30 10:51:32;;;;;;;4.78;1.38;;;;;;;34.29;24.82;101589.72;4911453;29;21535;-76
2021/03/30 10:54:02;;;;;;;2.53;1.00;;;;;;;34.57;24.74;101588.94;4909166;29;20039;-74
2021/03/30 10:56:32;;;;;;;0.85;0.73;;;;;;;34.89;24.38;101585.34;4912373;29;20119;-72
2021/03/30 10:58:58;;;;;;;0.68;0.68;;;;;;;35.32;24.17;101575.16;4913824;29;20452;-74
2021/03/30 11:01:23;;;;;;;1.08;0.88;;;;;;;35.73;23.65;101581.06;4911661;29;20092;-74
2021/03/30 11:03:49;;;;;;;0.70;0.70;;;;;;;36.21;23.66;101573.94;4912401;29;20132;-73
2021/03/30 11:06:14;;;;;;;0.40;0.40;;;;;;;36.72;23.90;101582.16;4921444;29;20494;-74
2021/03/30 11:08:40;;;;;;;4.93;0.93;;;;;;;37.16;22.88;101577.69;4901856;29;20149;-72
2021/03/30 11:11:05;;;;;;;1.02;1.00;;;;;;;37.47;22.30;101577.75;4917089;29;20462;-74
2021/03/30 11:13:31;;;;;;;2.50;1.48;;;;;;;37.93;20.39;101570.69;4916027;29;20040;-73
2021/03/30 11:15:56;;;;;;;1.15;1.05;;;;;;;38.06;20.21;101568.84;4914408;29;20043;-74
2021/03/30 11:18:22;;;;;;;4.68;2.00;;;;;;;38.06;19.16;101560.28;4916208;29;20067;-74
2021/03/30 11:20:47;;;;;;;1.85;1.75;;;;;;;37.97;18.06;101557.16;4894720;29;20032;-74
2021/03/30 11:23:13;;;;;;;2.25;1.27;;;;;;;38.18;18.87;101560.94;4919885;29;20024;-75
2021/03/30 11:25:39;;;;;;;1.73;1.63;;;;;;;38.65;19.01;101555.28;4920214;29;20079;-74
2021/03/30 11:28:13;;;;;;;1.00;0.88;;;;;;;38.86;18.47;101544.75;4921009;29;20375;-75
2021/03/30 11:30:52;;;;;;;1.67;1.57;;;;;;;38.80;17.91;101535.06;4919310;29;20028;-75
2021/03/30 11:33:29;;;;;;;1.67;1.33;;;;;;;38.49;17.65;101552.31;4904100;29;20286;-75
2021/03/30 11:38:28;;;;;;;2.78;2.10;;;;;;;37.58;16.20;101552.78;4918204;29;20027;-78
2021/03/30 11:40:54;;;;;;;2.00;1.90;;;;;;;37.19;16.65;101559.72;4890518;29;20678;-77
2021/03/30 11:43:19;;;;;;;2.00;1.90;;;;;;;37.00;17.27;101547.72;4902985;29;20123;-76
2021/03/30 11:45:45;;;;;;;1.80;1.70;;;;;;;36.47;16.78;101549.78;4918025;29;20447;-75
2021/03/30 11:48:14;;;;;;;1.98;1.10;;;;;;;35.79;17.57;101548.19;4917924;29;20043;-74
2021/03/30 11:50:39;;;;;;;0.93;0.93;;;;;;;35.02;18.02;101530.91;4921304;29;20375;-75
2021/03/30 11:53:07;;;;;;;1.40;1.30;;;;;;;33.97;18.46;101538.56;4914783;29;20024;-74
2021/03/30 11:55:33;;;;;;;1.27;1.00;;;;;;;33.14;19.19;101536.09;4923158;29;20028;-75
2021/03/30 11:57:58;;;;;;;2.30;2.10;;;;;;;32.30;18.99;101533.00;4912648;29;20140;-74
2021/03/30 12:00:24;;;;;;;1.63;1.52;;;;;;;31.33;19.90;101518.50;4905079;29;20044;-75
2021/03/30 12:02:50;;;;;;;2.97;2.45;;;;;;;30.45;20.50;101531.66;4910174;29;20052;-75
2021/03/30 12:05:18;;;;;;;2.28;1.98;;;;;;;29.82;21.41;101524.34;4911359;29;20103;-75
2021/03/30 12:07:45;;;;;;;3.83;2.10;;;;;;;29.58;21.63;101527.13;4915562;29;20102;-77
2021/03/30 12:10:12;;;;;;;2.28;2.08;;;;;;;29.83;22.44;101523.19;4921681;29;20040;-76
2021/03/30 12:12:40;;;;;;;2.70;1.55;;;;;;;30.49;22.22;101524.06;4897648;29;20028;-76
2021/03/30 12:15:08;;;;;;;1.88;1.77;;;;;;;31.57;22.37;101530.53;4917704;29;20040;-74